createdAt,value
2019-02-04T00:06:58.918Z,22.97
2019-02-04T00:17:04.368Z,22.93
2019-02-04T00:27:09.658Z,21.70
2019-02-04T00:37:15.059Z,22.07
2019-02-04T00:47:20.360Z,20.47
2019-02-04T00:57:25.744Z,20.80
2019-02-04T01:07:31.090Z,19.73
2019-02-04T01:17:36.414Z,18.00
2019-02-04T01:27:41.938Z,18.03
2019-02-04T01:37:47.349Z,15.33
2019-02-04T01:47:52.658Z,13.27
2019-02-04T01:57:58.438Z,11.93
2019-02-04T02:08:03.796Z,9.30
2019-02-04T02:18:09.142Z,8.53
2019-02-04T02:28:15.496Z,6.03
2019-02-04T02:38:20.811Z,6.47
2019-02-04T02:48:26.175Z,5.37
2019-02-04T02:58:31.515Z,5.93
2019-02-04T03:08:36.841Z,5.53
2019-02-04T03:18:42.174Z,4.23
2019-02-04T03:28:47.582Z,4.67
2019-02-04T03:38:53.129Z,3.97
2019-02-04T03:48:58.417Z,3.90
2019-02-04T03:59:03.732Z,4.00
2019-02-04T04:09:09.317Z,2.83
2019-02-04T04:19:14.642Z,2.83
2019-02-04T04:29:19.899Z,3.03
2019-02-04T04:39:25.454Z,2.13
2019-02-04T04:49:30.799Z,2.73
2019-02-04T04:59:36.159Z,2.60
2019-02-04T05:09:41.783Z,2.07
2019-02-04T05:19:47.065Z,2.50
2019-02-04T05:29:52.409Z,2.23
2019-02-04T05:39:57.951Z,2.30
2019-02-04T05:50:03.293Z,2.63
2019-02-04T06:00:10.651Z,2.77
2019-02-04T06:10:16.081Z,2.60
2019-02-04T06:20:21.973Z,2.83
2019-02-04T06:30:28.531Z,2.63
2019-02-04T06:40:33.911Z,3.20
2019-02-04T06:50:39.231Z,3.50
2019-02-04T07:00:44.751Z,3.70
2019-02-04T07:10:50.140Z,3.20
2019-02-04T07:20:55.801Z,4.13
2019-02-04T07:31:01.160Z,4.10
2019-02-04T07:41:06.027Z,4.37
2019-02-04T07:51:10.912Z,5.40
2019-02-04T08:01:15.530Z,6.00
2019-02-04T08:11:20.282Z,6.37
2019-02-04T08:21:25.164Z,7.33
2019-02-04T08:31:29.824Z,7.10
2019-02-04T08:41:34.515Z,7.77
2019-02-04T08:51:39.566Z,7.20
2019-02-04T09:01:44.248Z,7.73
2019-02-04T09:11:48.945Z,8.43
2019-02-04T09:21:53.619Z,7.63
2019-02-04T09:31:58.912Z,8.17
2019-02-04T09:42:03.611Z,9.07
2019-02-04T09:52:08.223Z,9.53
2019-02-04T10:02:12.999Z,9.97
2019-02-04T10:12:17.606Z,9.20
2019-02-04T10:22:22.742Z,8.30
2019-02-04T10:32:27.759Z,9.00
2019-02-04T10:42:32.837Z,8.37
2019-02-04T10:52:37.531Z,9.03
2019-02-04T11:02:42.212Z,9.70
2019-02-04T11:12:47.111Z,9.23
2019-02-04T11:22:51.791Z,9.43
2019-02-04T11:32:56.615Z,10.27
2019-02-04T11:43:01.358Z,10.00
2019-02-04T11:53:06.726Z,9.60
2019-02-04T12:03:11.981Z,10.10
2019-02-04T12:13:16.755Z,9.13
2019-02-04T12:23:21.477Z,9.87
2019-02-04T12:33:26.226Z,9.93
2019-02-04T12:43:31.191Z,9.20
2019-02-04T12:53:36.932Z,8.80
2019-02-04T13:03:42.066Z,9.30
2019-02-04T13:13:46.763Z,10.03
2019-02-04T13:23:51.544Z,10.80
2019-02-04T13:33:56.208Z,9.67
2019-02-04T13:44:00.966Z,9.97
2019-02-04T13:54:05.715Z,10.53
2019-02-04T14:04:10.537Z,10.93
2019-02-04T14:14:15.280Z,10.03
2019-02-04T14:24:19.966Z,10.87
2019-02-04T14:34:24.602Z,10.27
2019-02-04T14:44:41.730Z,10.70
2019-02-04T14:55:11.285Z,10.47
2019-02-04T15:05:40.966Z,10.80
2019-02-04T15:16:11.168Z,10.70
2019-02-04T15:26:37.998Z,9.70
2019-02-04T15:37:04.468Z,10.10
2019-02-04T15:47:17.266Z,11.17
2019-02-04T15:57:21.896Z,9.83
2019-02-04T16:07:26.768Z,11.63
2019-02-04T16:17:31.851Z,11.20
2019-02-04T16:27:36.567Z,10.97
2019-02-04T16:37:41.403Z,11.33
2019-02-04T16:47:46.397Z,14.77
2019-02-04T16:57:51.092Z,11.23
2019-02-04T17:07:57.570Z,11.30
2019-02-04T17:18:02.470Z,9.87
2019-02-04T17:28:07.350Z,9.70
2019-02-04T17:38:12.055Z,9.33
2019-02-04T17:48:17.158Z,8.50
2019-02-04T17:58:21.868Z,7.77
2019-02-04T18:08:26.631Z,9.70
2019-02-04T18:18:31.353Z,7.90
2019-02-04T18:28:35.989Z,9.77
2019-02-04T18:38:40.611Z,7.90
2019-02-04T18:48:45.469Z,8.13
2019-02-04T18:58:50.101Z,6.50
2019-02-04T19:08:54.799Z,8.40
2019-02-04T19:18:59.579Z,6.73
2019-02-04T19:29:04.441Z,8.43
2019-02-04T19:39:09.997Z,8.67
2019-02-04T19:49:15.562Z,9.33
2019-02-04T19:59:21.280Z,8.90
2019-02-04T20:09:26.353Z,11.27
2019-02-04T20:19:33.674Z,11.20
2019-02-04T20:29:38.447Z,12.17
2019-02-04T20:39:43.941Z,11.10
2019-02-04T20:49:51.534Z,11.33
2019-02-04T20:59:56.588Z,10.30
2019-02-04T21:10:01.412Z,8.90
2019-02-04T21:20:06.906Z,8.73
2019-02-04T21:30:18.572Z,9.73
2019-02-04T21:40:23.669Z,10.90
2019-02-04T21:50:29.006Z,11.57
2019-02-04T22:00:34.948Z,14.93
2019-02-04T22:10:39.569Z,15.07
2019-02-04T22:20:44.345Z,16.87
2019-02-04T22:30:49.142Z,16.83
2019-02-04T22:40:53.835Z,13.80
2019-02-04T22:50:58.693Z,13.53
2019-02-04T23:01:22.077Z,13.33
2019-02-04T23:11:26.737Z,12.87
2019-02-04T23:21:31.448Z,13.50
2019-02-04T23:31:36.123Z,13.00
2019-02-04T23:41:41.777Z,13.17
2019-02-04T23:51:47.533Z,13.70
